EST,Max TemperatureF,Mean TemperatureF,Min TemperatureF,Max Dew PointF,MeanDew PointF,Min DewpointF,Max Humidity, Mean Humidity, Min Humidity, Max Sea Level PressureIn, Mean Sea Level PressureIn, Min Sea Level PressureIn, Max VisibilityMiles, Mean VisibilityMiles, Min VisibilityMiles, Max Wind SpeedMPH, Mean Wind SpeedMPH, Max Gust SpeedMPH,PrecipitationIn, CloudCover, Events, WindDirDegrees
2011-12-1,44,34,24,31,26,21,96,85,58,30.39,30.33,30.25,10,8,4,9,1,,0.00,0,,224
2011-12-2,46,36,25,35,29,23,92,84,63,30.55,30.44,30.31,10,7,3,8,2,,0.00,1,,286
2011-12-3,54,40,25,35,30,23,96,71,45,30.53,30.44,30.30,10,8,4,9,4,,0.00,0,,140
2011-12-4,55,49,43,44,34,26,93,57,38,30.27,30.23,30.19,10,10,10,12,8,18,0.00,5,Rain,166
2011-12-5,53,48,42,52,48,41,100,95,88,30.19,30.10,30.00,10,4,2,13,5,,1.44,8,Rain,133
2011-12-6,42,40,39,41,38,37,100,93,87,30.12,30.06,30.03,10,7,2,15,9,23,0.03,8,Rain,7
2011-12-7,39,34,28,37,31,24,100,88,70,30.13,29.98,29.90,10,7,2,15,8,24,0.03,7,Snow,323
2011-12-8,37,30,24,27,25,21,92,81,65,30.33,30.26,30.14,10,9,7,10,7,,0.00,1,,233
2011-12-9,41,34,26,32,28,24,92,81,62,30.38,30.28,30.22,10,9,7,10,4,,0.00,6,,274
2011-12-10,30,24,18,25,16,14,88,73,51,30.57,30.51,30.38,10,10,8,9,5,17,0.00,0,,279
2011-12-11,39,27,15,20,15,12,89,72,34,30.64,30.57,30.52,10,10,8,5,1,,0.00,0,,157
2011-12-12,45,32,18,26,21,14,96,76,44,30.53,30.49,30.46,10,9,7,4,0,,0.00,0,,220
2011-12-13,46,34,23,36,30,20,92,80,50,30.51,30.45,30.38,10,9,7,5,0,,0.00,7,,350
2011-12-14,55,47,39,49,42,32,100,91,67,30.37,30.25,30.03,10,6,2,10,4,,0.24,6,Rain,145
2011-12-15,59,48,36,56,46,28,94,81,67,30.17,29.95,29.82,10,9,2,22,14,34,0.16,7,Rain,247
2011-12-16,36,33,30,28,26,24,82,72,65,30.36,30.28,30.19,10,10,10,13,7,18,0.00,6,,301
2011-12-17,33,32,30,29,26,21,92,79,64,30.33,30.27,30.23,10,5,1,9,6,,0.00,8,Snow,259
2011-12-18,42,37,32,29,28,26,85,74,58,30.32,30.25,30.18,10,10,8,13,5,18,0.00,5,,236
2011-12-19,48,42,35,42,35,29,97,75,56,30.16,30.11,30.06,10,9,4,12,8,17,0.10,6,Rain,213
2011-12-20,46,44,41,45,42,40,100,95,86,30.16,30.08,29.92,10,6,1,12,6,,0.12,8,Rain,143
2011-12-21,63,54,44,55,49,41,94,83,62,29.99,29.81,29.67,10,9,2,20,9,28,0.42,7,Rain,207
2011-12-22,46,42,39,43,42,37,100,91,80,30.12,30.03,29.98,10,6,2,10,3,,0.53,8,Rain,351
2011-12-23,39,36,33,37,33,27,100,88,75,30.34,30.23,30.05,10,8,1,13,6,,0.04,8,Rain,325
2011-12-24,39,33,27,30,27,23,92,78,58,30.47,30.39,30.33,10,10,6,10,3,,0.00,3,,218
2011-12-25,48,39,30,29,27,25,85,69,44,30.31,30.23,30.08,10,10,10,18,8,28,0.00,1,,219
2011-12-26,45,38,30,29,27,25,85,64,48,30.40,30.26,29.99,10,10,10,10,4,17,0.00,2,,185
2011-12-27,41,38,34,39,35,29,100,91,70,29.97,29.59,29.39,10,5,2,17,5,26,0.53,8,Rain-Snow,202
2011-12-28,36,30,25,32,23,19,89,73,64,30.09,29.99,29.76,10,10,10,17,11,29,0.00,6,,290
2011-12-29,46,37,28,32,29,25,88,73,58,30.02,29.88,29.74,10,10,9,15,7,22,0.00,6,,175
2011-12-30,54,48,42,45,40,32,93,76,63,29.88,29.74,29.62,10,8,1,20,9,30,0.27,6,Rain-Thunderstorm,200
2011-12-31,45,41,37,40,38,35,93,86,79,30.12,29.98,29.75,10,9,4,15,9,26,0.03,7,Rain,247